Terminal Aerodrome Forecast
Issued by NWS

Home | Current Version | Previous Version | Text Only | Print | Product List | Glossary On
Versions: 1 2 3 4 5 6 7 8 9 10 11 12 13 14 15 16 17 18
533
FTUS44 KCRP 031327 AAA
TAFALI
TAF AMD
KALI 031327Z 0313/0412 03016KT P6SM OVC035
     FM032000 05010KT P6SM BKN060
     FM040400 01004KT P6SM FEW060=

USA.gov is the U.S. government's official web portal to all federal, state and local government web resources and services.